createdAt,value
2022-08-11T00:01:15.086Z,102266.28
2022-08-11T00:03:53.782Z,102241.56
2022-08-11T00:06:36.191Z,102263.19
2022-08-11T00:09:06.414Z,102267.56
2022-08-11T00:11:36.157Z,102255.75
2022-08-11T00:14:05.490Z,102256.41
2022-08-11T00:16:33.424Z,102264.16
2022-08-11T00:19:00.371Z,102262.28
2022-08-11T00:22:02.201Z,102258.75
2022-08-11T00:24:15.511Z,102262.53
2022-08-11T00:26:48.101Z,102261.91
2022-08-11T00:29:15.319Z,102266.53
2022-08-11T00:31:52.130Z,102271.13
2022-08-11T00:34:22.790Z,102266.53
2022-08-11T00:36:54.951Z,102256.94
2022-08-11T00:39:28.579Z,102259.88
2022-08-11T00:42:18.862Z,102273.06
2022-08-11T00:45:03.471Z,102277.91
2022-08-11T00:47:35.608Z,102274.56
2022-08-11T00:50:05.065Z,102272.09
2022-08-11T00:52:57.703Z,102268.19
2022-08-11T00:55:47.251Z,102265.06
2022-08-11T00:58:37.402Z,102268.25
2022-08-11T01:01:15.989Z,102263.69
2022-08-11T01:03:54.324Z,102267.72
2022-08-11T01:06:58.227Z,102260.00
2022-08-11T01:09:46.467Z,102259.19
2022-08-11T01:12:39.198Z,102257.06
2022-08-11T01:16:00.132Z,102255.41
2022-08-11T01:19:09.090Z,102240.63
2022-08-11T01:22:07.626Z,102252.53
2022-08-11T01:25:19.020Z,102256.72
2022-08-11T01:27:48.323Z,102257.56
2022-08-11T01:30:47.813Z,102264.06
2022-08-11T01:33:33.059Z,102261.34
2022-08-11T01:36:42.079Z,102258.47
2022-08-11T01:39:18.783Z,102251.81
2022-08-11T01:42:16.057Z,102257.47
2022-08-11T01:45:03.582Z,102246.84
2022-08-11T01:47:54.166Z,102245.13
2022-08-11T01:50:33.458Z,102238.28
2022-08-11T01:53:28.413Z,102245.56
2022-08-11T01:56:27.975Z,102235.31
2022-08-11T01:59:10.502Z,102239.91
2022-08-11T02:01:37.476Z,102237.81
2022-08-11T02:04:12.912Z,102239.50
2022-08-11T02:06:54.500Z,102242.81
2022-08-11T02:09:29.094Z,102239.88
2022-08-11T02:12:14.000Z,102235.94
2022-08-11T02:15:05.177Z,102237.00
2022-08-11T02:17:50.721Z,102235.78
2022-08-11T02:20:46.651Z,102233.72
2022-08-11T02:24:04.127Z,102230.16
2022-08-11T02:26:36.658Z,102211.09
2022-08-11T02:29:42.890Z,102234.53
2022-08-11T02:32:48.421Z,102227.69
2022-08-11T02:35:19.212Z,102230.84
2022-08-11T02:38:17.382Z,102223.13
2022-08-11T02:41:40.051Z,102218.75
2022-08-11T02:44:20.369Z,102211.91
2022-08-11T02:46:55.121Z,102223.56
2022-08-11T02:49:59.965Z,102217.38
2022-08-11T02:52:45.426Z,102217.81
2022-08-11T02:55:48.978Z,102214.72
2022-08-11T02:58:31.413Z,102221.19
2022-08-11T03:01:13.562Z,102196.94
2022-08-11T03:03:51.342Z,102209.59
2022-08-11T03:06:23.692Z,102211.22
2022-08-11T03:09:03.359Z,102216.06
2022-08-11T03:11:48.310Z,102210.03
2022-08-11T03:14:39.450Z,102209.03
2022-08-11T03:17:20.426Z,102211.13
2022-08-11T03:20:05.924Z,102209.84
2022-08-11T03:22:38.893Z,102204.66
2022-08-11T03:25:18.225Z,102209.25
2022-08-11T03:28:26.013Z,102206.97
2022-08-11T03:31:25.812Z,102208.47
2022-08-11T03:34:07.047Z,102213.25
2022-08-11T03:37:16.273Z,102209.34
2022-08-11T03:39:52.917Z,102199.53
2022-08-11T03:42:42.225Z,102204.78
2022-08-11T03:45:17.925Z,102202.97
2022-08-11T03:48:06.956Z,102205.91
2022-08-11T03:50:53.142Z,102202.78
2022-08-11T03:53:52.520Z,102214.66
2022-08-11T03:56:38.563Z,102213.44
2022-08-11T03:59:10.994Z,102211.19
2022-08-11T04:01:55.871Z,102204.53
2022-08-11T04:04:35.586Z,102216.81
2022-08-11T04:07:29.801Z,102203.50
2022-08-11T04:10:11.466Z,102200.84
2022-08-11T04:13:28.330Z,102206.06
2022-08-11T04:16:16.400Z,102202.34
2022-08-11T04:19:11.144Z,102206.75
2022-08-11T04:22:02.644Z,102201.59
2022-08-11T04:25:02.833Z,102209.09
2022-08-11T04:27:47.778Z,102207.25
2022-08-11T04:30:33.509Z,102209.53
2022-08-11T04:33:39.782Z,102214.13
2022-08-11T04:36:09.619Z,102213.72
2022-08-11T04:39:28.733Z,102217.88
2022-08-11T04:42:36.735Z,102212.06
2022-08-11T04:45:38.655Z,102214.94
2022-08-11T04:48:35.786Z,102211.19
2022-08-11T04:52:03.952Z,102213.28
2022-08-11T04:55:22.692Z,102218.66
2022-08-11T04:58:31.565Z,102207.81
2022-08-11T05:01:42.908Z,102207.16
2022-08-11T05:04:52.788Z,102216.31
2022-08-11T05:07:45.826Z,102216.50
2022-08-11T05:10:39.860Z,102213.75
2022-08-11T05:13:26.172Z,102214.78
2022-08-11T05:16:18.473Z,102208.72
2022-08-11T05:19:12.085Z,102206.41
2022-08-11T05:22:05.828Z,102208.88
2022-08-11T05:25:00.738Z,102211.75
2022-08-11T05:27:57.255Z,102195.78
2022-08-11T05:30:48.212Z,102209.22
2022-08-11T05:33:42.195Z,102182.63
2022-08-11T05:36:27.127Z,102217.47
2022-08-11T05:39:17.255Z,102211.56
2022-08-11T05:42:02.359Z,102209.41
2022-08-11T05:44:49.288Z,102209.97
2022-08-11T05:47:44.816Z,102203.81
2022-08-11T05:50:33.157Z,102203.56
2022-08-11T05:53:21.636Z,102206.66
2022-08-11T05:56:09.602Z,102216.59
2022-08-11T05:58:42.601Z,102211.13
2022-08-11T06:01:11.932Z,102212.59
2022-08-11T06:04:14.280Z,102212.53
2022-08-11T06:06:51.129Z,102216.97
2022-08-11T06:09:30.848Z,102205.84
2022-08-11T06:12:01.195Z,102202.81
2022-08-11T06:14:29.217Z,102210.19
2022-08-11T06:16:59.490Z,102202.56
2022-08-11T06:19:46.917Z,102208.28
2022-08-11T06:22:19.842Z,102212.75
2022-08-11T06:24:59.896Z,102193.72
2022-08-11T06:27:29.930Z,102204.66
2022-08-11T06:29:59.143Z,102211.44
2022-08-11T06:32:32.989Z,102203.78
2022-08-11T06:35:21.469Z,102197.56
2022-08-11T06:38:10.595Z,102198.66
2022-08-11T06:40:41.892Z,102196.44
2022-08-11T06:43:22.930Z,102196.81
2022-08-11T06:46:04.511Z,102177.41
2022-08-11T06:48:35.317Z,102193.38
2022-08-11T06:51:14.626Z,102199.56
2022-08-11T06:54:03.011Z,102192.91
2022-08-11T07:00:01.665Z,102188.41
2022-08-11T07:02:34.428Z,102196.00
2022-08-11T07:05:37.923Z,102189.19
2022-08-11T07:08:38.031Z,102188.84
2022-08-11T07:11:46.373Z,102191.19
2022-08-11T07:14:38.636Z,102185.94
2022-08-11T07:17:11.321Z,102181.69
2022-08-11T07:19:59.751Z,102190.28
2022-08-11T07:22:49.826Z,102178.72
2022-08-11T07:25:36.077Z,102184.59
2022-08-11T07:28:30.542Z,102180.00
2022-08-11T07:31:03.314Z,102170.00
2022-08-11T07:34:08.076Z,102169.44
2022-08-11T07:36:35.148Z,102155.22
2022-08-11T07:39:02.734Z,102171.94
2022-08-11T07:41:34.488Z,102171.25
2022-08-11T07:44:08.962Z,102179.34
2022-08-11T07:47:00.968Z,102179.44
2022-08-11T07:49:48.047Z,102174.03
2022-08-11T07:52:27.304Z,102181.38
2022-08-11T07:55:02.277Z,102169.03
2022-08-11T07:58:14.563Z,102172.44
2022-08-11T08:01:02.703Z,102167.84
2022-08-11T08:03:54.075Z,102166.56
2022-08-11T08:06:41.228Z,102159.50
2022-08-11T08:09:27.759Z,102165.09
2022-08-11T08:12:14.505Z,102171.44
2022-08-11T08:15:01.122Z,102159.75
2022-08-11T08:18:09.841Z,102168.22
2022-08-11T08:20:38.359Z,102140.88
2022-08-11T08:23:06.113Z,102161.56
2022-08-11T08:25:36.296Z,102149.25
2022-08-11T08:28:15.234Z,102154.69
2022-08-11T08:30:51.107Z,102166.16
2022-08-11T08:33:26.633Z,102164.22
2022-08-11T08:36:12.377Z,102158.00
2022-08-11T08:38:41.610Z,102157.59
2022-08-11T08:41:10.081Z,102156.06
2022-08-11T08:43:48.758Z,102155.53
2022-08-11T08:46:20.853Z,102161.81
2022-08-11T08:48:48.808Z,102162.34
2022-08-11T08:52:02.412Z,102146.03
2022-08-11T08:54:25.668Z,102149.94
2022-08-11T08:56:55.764Z,102141.22
2022-08-11T08:59:26.677Z,102143.72
2022-08-11T09:02:13.963Z,102138.22
2022-08-11T09:04:42.629Z,102137.94
2022-08-11T09:07:15.343Z,102139.56
2022-08-11T09:09:48.760Z,102137.34
2022-08-11T09:12:16.936Z,102140.94
2022-08-11T09:15:05.487Z,102136.78
2022-08-11T09:17:40.080Z,102136.47
2022-08-11T09:20:14.846Z,102125.41
2022-08-11T09:26:11.226Z,102112.25
2022-08-11T09:28:38.054Z,102116.34
2022-08-11T09:31:06.548Z,102106.88
2022-08-11T09:33:33.399Z,102103.44
2022-08-11T09:36:20.570Z,102101.41
2022-08-11T09:39:05.803Z,102103.91
2022-08-11T09:42:00.730Z,102101.69
2022-08-11T09:44:39.653Z,102112.31
2022-08-11T09:47:15.011Z,102107.84
2022-08-11T09:49:44.915Z,102107.25
2022-08-11T09:52:14.283Z,102104.06
2022-08-11T09:54:42.749Z,102106.69
2022-08-11T09:57:33.480Z,102091.56
2022-08-11T10:00:09.511Z,102091.25
2022-08-11T10:02:44.114Z,102082.47
2022-08-11T10:05:33.193Z,102087.84
2022-08-11T10:08:01.400Z,102082.00
2022-08-11T10:10:29.233Z,102070.63
2022-08-11T10:13:04.381Z,102082.28
2022-08-11T10:15:38.265Z,102077.59
2022-08-11T10:18:27.480Z,102067.50
2022-08-11T10:21:11.462Z,102086.47
2022-08-11T10:24:00.515Z,102084.28
2022-08-11T10:26:54.227Z,102063.50
2022-08-11T10:29:49.926Z,102063.22
2022-08-11T10:32:58.126Z,102065.38
2022-08-11T10:35:28.085Z,102063.13
2022-08-11T10:38:08.051Z,102057.44
2022-08-11T10:40:38.999Z,102055.34
2022-08-11T10:43:10.333Z,102064.59
2022-08-11T10:45:57.367Z,102052.72
2022-08-11T10:48:26.742Z,102055.44
2022-08-11T10:51:13.000Z,102051.38
2022-08-11T10:54:03.397Z,102043.16
2022-08-11T10:56:57.478Z,102037.88
2022-08-11T10:59:27.545Z,102053.50
2022-08-11T11:01:55.106Z,102045.53
2022-08-11T11:04:35.735Z,102060.22
2022-08-11T11:07:13.837Z,102044.41
2022-08-11T11:10:02.690Z,102047.75
2022-08-11T11:13:02.255Z,102036.91
2022-08-11T11:15:49.797Z,102040.63
2022-08-11T11:18:22.575Z,102042.66
2022-08-11T11:20:55.275Z,102039.38
2022-08-11T11:23:41.300Z,102051.94
2022-08-11T11:26:27.251Z,102041.50
2022-08-11T11:29:31.438Z,102046.28
2022-08-11T11:32:33.127Z,102049.78
2022-08-11T11:35:18.083Z,102049.50
2022-08-11T11:38:04.504Z,102038.88
2022-08-11T11:40:33.012Z,102037.47
2022-08-11T11:43:00.452Z,102044.09
2022-08-11T11:45:27.215Z,102036.97
2022-08-11T11:47:56.232Z,102040.59
2022-08-11T11:50:31.813Z,102027.19
2022-08-11T11:53:01.607Z,102033.69
2022-08-11T11:55:29.493Z,102023.72
2022-08-11T11:58:18.766Z,102031.34
2022-08-11T12:01:05.184Z,102029.88
2022-08-11T12:03:33.303Z,102026.19
2022-08-11T12:06:00.534Z,102031.97
2022-08-11T12:08:28.080Z,102020.19
2022-08-11T12:11:20.135Z,102020.63
2022-08-11T12:13:49.187Z,102019.09
2022-08-11T12:16:34.024Z,102021.88
2022-08-11T12:19:05.454Z,102019.63
2022-08-11T12:21:34.334Z,102014.22
2022-08-11T12:24:21.200Z,102011.00
2022-08-11T12:27:15.785Z,102013.97
2022-08-11T12:29:35.461Z,102009.31
2022-08-11T12:32:06.830Z,102007.88
2022-08-11T12:34:33.301Z,102001.13
2022-08-11T12:37:05.537Z,101995.84
2022-08-11T12:40:10.899Z,101981.09
2022-08-11T12:43:08.180Z,101995.69
2022-08-11T12:45:38.316Z,101996.22
2022-08-11T12:49:00.493Z,102004.94
2022-08-11T12:52:11.080Z,101997.50
2022-08-11T12:54:44.750Z,101985.28
2022-08-11T12:57:37.964Z,101984.47
2022-08-11T13:00:27.788Z,101989.56
2022-08-11T13:03:14.371Z,101986.28
2022-08-11T13:05:46.093Z,101979.47
2022-08-11T13:08:15.267Z,101976.31
2022-08-11T13:11:01.573Z,101983.75
2022-08-11T13:13:54.340Z,101965.06
2022-08-11T13:16:17.567Z,101970.38
2022-08-11T13:18:44.618Z,101965.38
2022-08-11T13:21:20.111Z,101969.97
2022-08-11T13:24:00.318Z,101968.56
2022-08-11T13:26:43.395Z,101964.53
2022-08-11T13:29:21.369Z,101958.50
2022-08-11T13:31:48.759Z,101956.50
2022-08-11T13:34:17.607Z,101956.91
2022-08-11T13:36:45.337Z,101960.91
2022-08-11T13:39:13.976Z,101966.00
2022-08-11T13:41:44.006Z,101962.31
2022-08-11T13:44:16.780Z,101960.28
2022-08-11T13:46:45.724Z,101950.19
2022-08-11T13:49:16.702Z,101950.25
2022-08-11T13:51:44.166Z,101954.53
2022-08-11T13:54:22.583Z,101942.28
2022-08-11T13:56:54.514Z,101948.00
2022-08-11T13:59:23.814Z,101949.16
2022-08-11T14:02:20.287Z,101948.31
2022-08-11T14:04:57.863Z,101944.84
2022-08-11T14:07:35.433Z,101940.97
2022-08-11T14:10:04.201Z,101933.13
2022-08-11T14:12:52.463Z,101928.19
2022-08-11T14:15:25.566Z,101928.38
2022-08-11T14:17:57.301Z,101925.56
2022-08-11T14:20:39.423Z,101920.06
2022-08-11T14:23:10.851Z,101917.13
2022-08-11T14:26:01.907Z,101958.75
2022-08-11T14:28:36.201Z,101953.84
2022-08-11T14:31:08.444Z,101960.75
2022-08-11T14:33:58.411Z,101941.38
2022-08-11T14:36:28.617Z,101933.63
2022-08-11T14:38:55.828Z,101924.28
2022-08-11T14:42:10.344Z,101917.66
2022-08-11T14:44:50.898Z,101917.81
2022-08-11T14:47:24.350Z,101918.09
2022-08-11T14:50:10.368Z,101913.19
2022-08-11T14:52:43.257Z,101910.16
2022-08-11T14:55:30.029Z,101899.13
2022-08-11T14:57:57.318Z,101906.22
2022-08-11T15:00:25.246Z,101902.28
2022-08-11T15:03:12.151Z,101890.63
2022-08-11T15:05:56.544Z,101893.97
2022-08-11T15:08:54.613Z,101894.69
2022-08-11T15:11:43.086Z,101889.94
2022-08-11T15:14:12.018Z,101892.03
2022-08-11T15:17:00.918Z,101885.97
2022-08-11T15:19:30.039Z,101889.94
2022-08-11T15:22:28.284Z,101887.34
2022-08-11T15:24:55.534Z,101877.56
2022-08-11T15:27:42.844Z,101881.16
2022-08-11T15:30:33.345Z,101871.69
2022-08-11T15:33:24.191Z,101871.59
2022-08-11T15:36:10.636Z,101875.09
2022-08-11T15:38:44.406Z,101871.75
2022-08-11T15:41:34.315Z,101864.69
